Time;durP1;ratioP1;P1;durP2;ratioP2;P2;SDS_P1;SDS_P2;PMS_P1;PMS_P2;Temp;Humidity;BMP_temperature;BMP_pressure;BME280_temperature;BME280_humidity;BME280_pressure;Samples;Min_cycle;Max_cycle;Signal;HPM_P1;HPM_P2
2023/08/16 00:01:28;;;;;;;4.03;3.63;;;21.90;99.90;;;;;;5059099;28;20050;-71
2023/08/16 00:04:02;;;;;;;5.10;3.60;;;22.00;76.10;;;;;;5073895;29;20036;-71
2023/08/16 00:06:39;;;;;;;3.95;3.55;;;22.30;1.00;;;;;;5059891;28;20040;-71
2023/08/16 00:09:14;;;;;;;4.32;3.50;;;22.40;1.00;;;;;;5078757;28;20113;-71
2023/08/16 00:11:51;;;;;;;5.32;3.70;;;22.50;1.00;;;;;;5077629;28;20363;-71
2023/08/16 00:14:24;;;;;;;4.80;3.50;;;22.50;1.00;;;;;;5077529;29;20038;-72
2023/08/16 00:16:59;;;;;;;4.03;3.63;;;22.50;1.00;;;;;;5099811;28;20347;-71
2023/08/16 00:19:31;;;;;;;3.80;3.40;;;22.60;1.00;;;;;;5096404;28;20035;-71
2023/08/16 00:22:06;;;;;;;5.03;3.90;;;22.60;1.00;;;;;;5100787;28;20046;-72
2023/08/16 00:24:41;;;;;;;4.15;3.80;;;22.50;1.00;;;;;;5183637;28;20039;-71
2023/08/16 00:27:15;;;;;;;3.75;3.45;;;22.40;1.00;;;;;;5166606;28;20053;-70
2023/08/16 00:29:47;;;;;;;4.47;4.07;;;22.30;1.00;;;;;;5074488;28;20044;-71
2023/08/16 00:32:19;;;;;;;3.90;3.10;;;22.20;92.80;;;;;;5023974;29;20051;-71
2023/08/16 00:34:51;;;;;;;3.70;3.22;;;22.20;99.90;;;;;;5065673;29;20048;-73
2023/08/16 00:37:22;;;;;;;4.93;3.75;;;22.20;23.80;;;;;;5080678;29;20052;-71
2023/08/16 00:39:54;;;;;;;4.47;3.45;;;22.30;94.10;;;;;;5081401;28;20073;-71
2023/08/16 00:42:26;;;;;;;4.43;4.03;;;22.30;21.90;;;;;;5089496;29;20038;-72
2023/08/16 00:45:01;;;;;;;5.43;4.40;;;22.20;59.40;;;;;;5073757;28;20042;-71
2023/08/16 00:47:34;;;;;;;6.45;3.97;;;22.20;99.90;;;;;;5077940;28;20544;-72
2023/08/16 00:50:11;;;;;;;4.25;3.65;;;22.10;99.90;;;;;;5082663;28;20317;-72
2023/08/16 00:52:55;;;;;;;4.72;4.05;;;22.10;99.90;;;;;;5097020;29;20036;-71
2023/08/16 00:55:26;;;;;;;4.47;3.90;;;22.00;99.90;;;;;;5074728;28;20043;-71
2023/08/16 00:58:03;;;;;;;4.05;3.65;;;21.90;99.90;;;;;;5163164;28;20044;-71
2023/08/16 01:03:13;;;;;;;4.80;3.88;;;21.90;99.90;;;;;;5221461;28;20256;-71
2023/08/16 01:05:48;;;;;;;6.30;3.97;;;21.90;99.90;;;;;;5228992;28;20036;-71
2023/08/16 01:08:20;;;;;;;4.22;3.60;;;21.90;99.90;;;;;;5190136;28;20500;-71
2023/08/16 01:11:34;;;;;;;4.03;3.47;;;21.80;99.90;;;;;;5203292;28;20033;-70
2023/08/16 01:14:19;;;;;;;3.60;3.25;;;21.70;99.90;;;;;;5167266;28;20536;-73
2023/08/16 01:16:51;;;;;;;3.88;3.25;;;21.70;99.90;;;;;;5205731;28;20056;-73
2023/08/16 01:19:35;;;;;;;4.50;2.97;;;21.70;99.90;;;;;;5227288;28;20050;-70
2023/08/16 01:22:18;;;;;;;5.55;3.42;;;21.80;99.90;;;;;;5243741;28;20044;-72
2023/08/16 01:25:31;;;;;;;3.53;3.13;;;21.70;99.90;;;;;;5190460;28;20501;-71
2023/08/16 01:28:05;;;;;;;4.05;2.90;;;21.70;99.90;;;;;;5224640;28;20037;-72
2023/08/16 01:30:40;;;;;;;5.22;3.30;;;21.60;1.00;;;;;;5209396;28;20049;-71
2023/08/16 01:33:13;;;;;;;3.38;3.08;;;21.40;1.00;;;;;;5204591;28;20054;-71
2023/08/16 01:35:45;;;;;;;3.55;3.25;;;21.30;1.00;;;;;;5200156;28;20063;-70
2023/08/16 01:38:19;;;;;;;4.28;3.50;;;21.20;1.00;;;;;;5166951;28;20079;-71
2023/08/16 01:41:17;;;;;;;3.58;3.28;;;21.10;1.00;;;;;;5169312;28;20041;-70
2023/08/16 01:43:50;;;;;;;4.68;4.10;;;21.00;1.00;;;;;;5174253;28;20565;-70
2023/08/16 01:46:23;;;;;;;4.03;3.38;;;21.00;1.00;;;;;;5164702;28;20049;-72
2023/08/16 01:48:57;;;;;;;5.30;3.92;;;20.90;1.00;;;;;;5163755;28;20056;-71
2023/08/16 01:51:29;;;;;;;4.10;3.70;;;20.90;1.00;;;;;;5170252;28;20052;-71
2023/08/16 01:54:00;;;;;;;3.85;3.42;;;20.80;1.00;;;;;;5180653;28;20042;-70
2023/08/16 01:56:32;;;;;;;4.80;3.90;;;20.70;1.00;;;;;;5182314;28;20051;-70
2023/08/16 01:59:05;;;;;;;3.92;3.47;;;20.70;1.00;;;;;;5180346;28;20045;-71
2023/08/16 02:01:59;;;;;;;4.53;3.45;;;20.70;1.00;;;;;;5182210;28;20045;-71
2023/08/16 02:04:33;;;;;;;5.35;3.60;;;20.50;1.00;;;;;;5162634;28;20052;-71
2023/08/16 02:07:06;;;;;;;3.95;3.55;;;20.50;1.00;;;;;;5156302;28;20044;-71
2023/08/16 02:09:40;;;;;;;3.60;3.30;;;20.40;1.00;;;;;;5219945;28;20547;-71
2023/08/16 02:12:12;;;;;;;4.10;3.45;;;20.30;1.00;;;;;;5214289;28;20041;-71
2023/08/16 02:14:46;;;;;;;4.28;3.70;;;20.30;1.00;;;;;;5195344;28;20099;-71
2023/08/16 02:17:24;;;;;;;4.45;3.35;;;20.40;1.00;;;;;;5170183;28;20249;-71
2023/08/16 02:19:55;;;;;;;3.88;3.58;;;20.30;1.00;;;;;;5223628;28;20048;-70
2023/08/16 02:22:27;;;;;;;6.45;3.50;;;20.30;1.00;;;;;;5222255;28;20048;-71
2023/08/16 02:25:00;;;;;;;4.22;3.53;;;20.30;1.00;;;;;;5188961;28;20037;-71
2023/08/16 02:27:37;;;;;;;4.00;3.30;;;20.20;1.00;;;;;;5197777;28;20045;-71
2023/08/16 02:30:11;;;;;;;5.43;3.42;;;20.10;1.00;;;;;;5217762;28;20054;-71
2023/08/16 02:32:42;;;;;;;4.00;3.30;;;20.00;1.00;;;;;;5193374;28;20045;-71
2023/08/16 02:35:17;;;;;;;6.65;4.18;;;20.00;1.00;;;;;;5203365;28;20041;-71
2023/08/16 02:37:54;;;;;;;4.78;3.85;;;19.90;1.00;;;;;;5189241;28;20033;-71
2023/08/16 02:40:28;;;;;;;3.78;3.28;;;19.80;1.00;;;;;;5206982;28;20108;-71
2023/08/16 02:43:06;;;;;;;4.22;3.70;;;19.80;3.10;;;;;;5183393;28;20075;-71
2023/08/16 02:45:37;;;;;;;5.10;4.03;;;19.80;1.00;;;;;;5206324;28;20033;-72
2023/08/16 02:48:11;;;;;;;3.53;3.22;;;19.80;15.20;;;;;;5208407;28;20351;-70
2023/08/16 02:50:47;;;;;;;4.20;3.70;;;19.80;1.00;;;;;;5228627;28;20213;-71
2023/08/16 02:53:21;;;;;;;4.18;3.13;;;19.80;44.80;;;;;;5225128;28;20361;-70
2023/08/16 02:55:55;;;;;;;5.93;3.97;;;19.80;46.70;;;;;;5194964;28;20310;-71
2023/08/16 02:58:32;;;;;;;4.35;3.58;;;19.70;71.10;;;;;;5209278;28;20029;-71
2023/08/16 03:01:04;;;;;;;5.95;3.67;;;19.70;1.00;;;;;;5219619;28;20035;-71
2023/08/16 03:03:42;;;;;;;4.25;3.30;;;19.70;1.00;;;;;;5212174;28;20029;-71
2023/08/16 03:06:16;;;;;;;6.53;3.40;;;19.70;31.40;;;;;;5207255;28;20033;-70
2023/08/16 03:08:47;;;;;;;3.83;3.45;;;19.70;82.80;;;;;;5193819;28;20044;-71
2023/08/16 03:11:19;;;;;;;5.20;3.53;;;19.70;80.70;;;;;;5235839;28;20070;-71
2023/08/16 03:13:53;;;;;;;3.67;3.30;;;19.60;1.00;;;;;;5202006;28;20051;-70
2023/08/16 03:16:32;;;;;;;4.15;3.72;;;19.70;1.00;;;;;;5199087;28;20051;-71
2023/08/16 03:19:07;;;;;;;4.50;3.28;;;19.60;43.70;;;;;;5227316;28;20029;-70
2023/08/16 03:21:41;;;;;;;5.50;3.25;;;19.60;99.90;;;;;;5217665;28;20048;-71
2023/08/16 03:24:13;;;;;;;5.68;3.53;;;19.60;99.90;;;;;;5191770;28;20066;-71
2023/08/16 03:26:49;;;;;;;6.05;3.63;;;19.60;99.90;;;;;;5198931;28;20047;-72
2023/08/16 03:29:26;;;;;;;4.32;3.65;;;19.60;99.90;;;;;;5207844;28;20032;-71
2023/08/16 03:32:00;;;;;;;5.70;3.80;;;19.60;99.90;;;;;;5220132;28;20526;-71
2023/08/16 03:34:34;;;;;;;4.13;3.75;;;19.70;99.90;;;;;;5224685;28;20044;-70
2023/08/16 03:37:08;;;;;;;5.38;3.85;;;19.60;99.90;;;;;;5207100;28;20052;-72
2023/08/16 03:39:46;;;;;;;5.07;3.65;;;19.60;99.90;;;;;;5224859;28;20036;-71
2023/08/16 03:42:19;;;;;;;5.53;3.65;;;19.50;99.90;;;;;;5237103;28;20054;-71
2023/08/16 03:44:58;;;;;;;4.10;3.13;;;19.50;99.90;;;;;;5224040;28;20056;-71
2023/08/16 03:47:35;;;;;;;4.57;3.67;;;19.50;99.90;;;;;;5202256;28;20324;-71
2023/08/16 03:50:12;;;;;;;4.65;3.67;;;19.50;99.90;;;;;;5197711;28;20082;-71
2023/08/16 03:52:46;;;;;;;4.53;3.88;;;19.40;99.90;;;;;;5187365;28;20035;-72
2023/08/16 03:55:22;;;;;;;6.55;3.63;;;19.50;99.90;;;;;;5219396;28;20051;-71
2023/08/16 03:57:59;;;;;;;4.97;3.50;;;19.40;99.90;;;;;;5209296;28;20107;-71
2023/08/16 04:00:31;;;;;;;4.38;3.67;;;19.30;99.90;;;;;;5205780;28;20036;-71
2023/08/16 04:03:06;;;;;;;3.42;2.92;;;19.30;99.90;;;;;;5194947;28;20241;-71
2023/08/16 04:05:40;;;;;;;4.32;3.92;;;19.30;99.90;;;;;;5198791;28;20051;-72
2023/08/16 04:08:12;;;;;;;4.13;3.70;;;19.40;99.90;;;;;;5159128;28;20045;-72
2023/08/16 04:10:45;;;;;;;5.60;3.92;;;19.40;99.90;;;;;;5199723;28;20025;-70
2023/08/16 04:13:20;;;;;;;3.95;3.38;;;19.50;99.90;;;;;;5186948;28;20032;-71
2023/08/16 04:15:58;;;;;;;4.65;3.15;;;19.50;99.90;;;;;;5167910;28;20045;-71
2023/08/16 04:18:32;;;;;;;5.82;3.83;;;19.60;99.90;;;;;;5213284;28;20048;-73
2023/08/16 04:21:03;;;;;;;3.80;3.40;;;19.70;99.90;;;;;;5185222;28;20345;-71
2023/08/16 04:23:36;;;;;;;4.70;3.92;;;19.80;99.90;;;;;;5223191;28;20028;-74
2023/08/16 04:26:08;;;;;;;4.40;3.35;;;20.00;99.90;;;;;;5215395;28;20033;-71
2023/08/16 04:28:43;;;;;;;5.50;3.60;;;20.20;89.30;;;;;;5200169;28;20036;-71
2023/08/16 04:31:25;;;;;;;4.72;3.40;;;20.30;53.20;;;;;;5204331;28;20055;-71
2023/08/16 04:34:02;;;;;;;5.75;3.35;;;20.40;32.80;;;;;;5208921;28;20036;-70
2023/08/16 04:36:34;;;;;;;3.72;3.33;;;20.60;19.90;;;;;;5190924;28;20083;-72
2023/08/16 04:39:07;;;;;;;5.25;4.00;;;20.80;1.00;;;;;;5240404;28;20044;-71
2023/08/16 04:41:44;;;;;;;4.40;3.38;;;21.00;1.00;;;;;;5188839;28;20036;-70
2023/08/16 04:44:15;;;;;;;3.80;3.40;;;21.20;1.00;;;;;;5190583;28;20248;-71
2023/08/16 04:46:50;;;;;;;3.67;2.95;;;21.30;1.00;;;;;;5204429;28;20041;-71
2023/08/16 04:49:25;;;;;;;6.63;3.30;;;21.40;1.00;;;;;;5189965;28;20059;-71
2023/08/16 04:51:56;;;;;;;;;;;21.50;1.00;;;;;;5226278;28;20043;-71
2023/08/16 04:54:30;;;;;;;5.38;3.75;;;21.70;1.00;;;;;;5202326;28;19927;-70
2023/08/16 04:57:05;;;;;;;5.35;3.55;;;21.80;1.00;;;;;;5209309;28;20044;-72
2023/08/16 04:59:41;;;;;;;4.32;3.63;;;21.90;1.00;;;;;;5229524;28;20041;-71
2023/08/16 05:02:13;;;;;;;4.47;3.28;;;21.90;1.00;;;;;;5211830;28;20079;-71
2023/08/16 05:04:48;;;;;;;3.65;3.00;;;21.80;1.00;;;;;;5212066;28;20349;-71
2023/08/16 05:07:22;;;;;;;3.60;2.60;;;21.90;1.00;;;;;;5224484;28;20036;-71
2023/08/16 05:09:59;;;;;;;;;;;21.90;1.00;;;;;;5205253;28;20040;-71
2023/08/16 05:12:31;;;;;;;5.63;2.95;;;21.90;1.00;;;;;;5212464;28;19924;-71
2023/08/16 05:15:05;;;;;;;5.00;3.42;;;22.00;1.00;;;;;;5228585;28;20530;-72
2023/08/16 05:17:42;;;;;;;;;;;22.20;1.00;;;;;;5226571;28;20150;-72
2023/08/16 05:20:15;;;;;;;4.20;2.65;;;22.30;1.00;;;;;;5210232;28;20219;-72
2023/08/16 05:22:47;;;;;;;6.45;3.90;;;22.50;1.00;;;;;;5223315;28;20025;-71
2023/08/16 05:25:21;;;;;;;6.45;3.47;;;22.50;1.00;;;;;;5238385;28;20036;-73
2023/08/16 05:27:58;;;;;;;5.65;3.05;;;22.50;1.00;;;;;;5208755;28;20043;-73
2023/08/16 05:30:33;;;;;;;3.05;2.75;;;22.70;1.00;;;;;;5226105;28;20032;-71
2023/08/16 05:33:06;;;;;;;3.70;3.28;;;22.80;1.00;;;;;;5219886;28;20529;-74
2023/08/16 05:35:45;;;;;;;4.35;3.15;;;23.00;99.90;;;;;;5225598;28;20033;-74
2023/08/16 05:38:22;;;;;;;4.53;3.30;;;23.20;99.90;;;;;;5191797;28;20363;-72
2023/08/16 05:40:54;;;;;;;4.35;2.72;;;23.40;99.90;;;;;;5202894;28;21023;-72
2023/08/16 05:43:26;;;;;;;4.45;3.22;;;23.70;99.90;;;;;;5178291;28;20434;-73
2023/08/16 05:45:58;;;;;;;4.53;3.00;;;23.80;20.50;;;;;;5224470;28;20024;-73
2023/08/16 05:48:29;;;;;;;3.92;3.00;;;23.90;1.00;;;;;;5243367;28;20049;-71
2023/08/16 05:51:06;;;;;;;3.13;2.83;;;23.90;1.00;;;;;;5221417;28;20326;-71
2023/08/16 05:53:40;;;;;;;4.25;2.70;;;24.00;1.00;;;;;;5189033;28;20056;-72
2023/08/16 05:56:17;;;;;;;;;;;24.00;1.00;;;;;;5218755;28;20404;-72
2023/08/16 05:58:49;;;;;;;3.70;2.63;;;24.00;1.00;;;;;;5233738;28;19964;-73
2023/08/16 06:01:20;;;;;;;3.80;2.97;;;24.10;1.00;;;;;;5220728;28;20474;-71
2023/08/16 06:03:55;;;;;;;2.95;2.60;;;24.20;1.00;;;;;;5174897;28;20421;-73
2023/08/16 06:06:26;;;;;;;3.47;2.40;;;24.20;1.00;;;;;;5209215;28;20041;-72
2023/08/16 06:08:58;;;;;;;4.38;2.70;;;24.20;1.00;;;;;;5244352;28;20029;-72
2023/08/16 06:11:31;;;;;;;3.33;3.00;;;24.40;1.00;;;;;;5243674;28;20020;-71
2023/08/16 06:14:03;;;;;;;3.20;2.90;;;24.60;1.00;;;;;;5219935;28;20043;-72
2023/08/16 06:16:37;;;;;;;3.25;2.80;;;24.40;1.00;;;;;;5188182;28;20045;-72
2023/08/16 06:19:15;;;;;;;;;;;24.20;1.00;;;;;;5209121;28;20036;-73
2023/08/16 06:21:47;;;;;;;2.88;2.65;;;24.10;1.00;;;;;;5208383;28;19927;-73
2023/08/16 06:24:25;;;;;;;3.20;2.67;;;24.10;1.00;;;;;;5224581;28;20230;-72
2023/08/16 06:26:56;;;;;;;4.13;3.13;;;24.10;1.00;;;;;;5214655;28;20044;-72
2023/08/16 06:29:33;;;;;;;3.42;2.70;;;24.10;1.00;;;;;;5200868;28;20545;-71
2023/08/16 06:32:07;;;;;;;3.22;2.85;;;24.20;1.00;;;;;;5230638;28;20403;-71
2023/08/16 06:34:43;;;;;;;4.68;3.28;;;24.30;1.00;;;;;;5224081;28;20040;-71
2023/08/16 06:37:15;;;;;;;3.72;3.13;;;24.30;1.00;;;;;;5225897;28;20020;-72
2023/08/16 06:39:46;;;;;;;4.55;3.00;;;24.30;1.00;;;;;;5207878;28;20552;-72
2023/08/16 06:42:18;;;;;;;3.33;2.80;;;24.50;1.00;;;;;;5225541;28;20036;-73
2023/08/16 06:44:58;;;;;;;2.92;2.67;;;24.60;99.90;;;;;;5225276;28;20493;-73
2023/08/16 06:47:33;;;;;;;3.65;2.97;;;24.50;99.90;;;;;;5219086;28;20350;-72
2023/08/16 06:50:08;;;;;;;3.53;2.72;;;24.90;99.90;;;;;;5207997;28;20035;-73
2023/08/16 06:52:41;;;;;;;3.85;2.58;;;25.10;99.90;;;;;;5223704;28;20029;-72
2023/08/16 06:55:18;;;;;;;3.30;2.90;;;25.40;99.90;;;;;;5210437;28;20048;-72
2023/08/16 06:57:57;;;;;;;5.07;2.63;;;25.90;1.00;;;;;;5242866;28;20312;-72
2023/08/16 07:00:28;;;;;;;3.33;3.03;;;26.50;1.00;;;;;;5200249;28;20037;-71
2023/08/16 07:03:07;;;;;;;3.55;3.25;;;26.90;99.90;;;;;;5213279;28;20264;-72
2023/08/16 07:05:39;;;;;;;4.07;3.00;;;26.80;1.00;;;;;;5221061;28;20044;-73
2023/08/16 07:08:10;;;;;;;4.93;3.67;;;27.40;99.90;;;;;;5203958;28;20044;-72
2023/08/16 07:10:45;;;;;;;8.50;3.65;;;27.90;99.90;;;;;;5204331;28;20045;-72
2023/08/16 07:13:16;;;;;;;3.70;3.22;;;28.50;1.00;;;;;;5222084;28;20037;-72
2023/08/16 07:15:48;;;;;;;4.75;3.70;;;28.70;1.00;;;;;;5200694;28;20033;-72
2023/08/16 07:18:23;;;;;;;3.83;3.35;;;29.20;1.00;;;;;;5190402;28;20183;-72
2023/08/16 07:20:55;;;;;;;3.90;3.40;;;29.30;1.00;;;;;;5236261;28;20036;-73
2023/08/16 07:23:26;;;;;;;3.40;3.10;;;29.50;1.00;;;;;;5240860;28;20050;-72
2023/08/16 07:26:00;;;;;;;4.03;3.28;;;29.50;99.90;;;;;;5242271;28;20024;-71
2023/08/16 07:28:31;;;;;;;7.43;3.35;;;29.50;99.90;;;;;;5212498;28;20264;-72
2023/08/16 07:31:03;;;;;;;4.95;3.63;;;29.90;99.90;;;;;;5204348;28;20041;-71
2023/08/16 07:33:37;;;;;;;5.50;3.63;;;29.60;1.00;;;;;;5205999;28;20028;-70
2023/08/16 07:36:08;;;;;;;;;;;30.00;1.00;;;;;;5234271;28;20049;-71
2023/08/16 07:38:42;;;;;;;3.95;3.55;;;30.60;1.00;;;;;;5221793;28;19916;-73
2023/08/16 07:41:16;;;;;;;6.13;3.50;;;31.20;1.00;;;;;;5204081;28;20045;-71
2023/08/16 07:43:47;;;;;;;4.18;3.67;;;31.60;1.00;;;;;;5224612;28;20032;-73
2023/08/16 07:46:21;;;;;;;4.20;3.80;;;31.50;1.00;;;;;;5221547;28;20044;-72
2023/08/16 07:48:55;;;;;;;;;;;31.50;1.00;;;;;;5242919;28;20029;-72
2023/08/16 07:51:32;;;;;;;4.10;3.70;;;31.60;99.90;;;;;;5222115;28;20294;-72
2023/08/16 07:54:06;;;;;;;4.00;3.60;;;31.50;99.90;;;;;;5206976;28;20047;-72
2023/08/16 07:56:49;;;;;;;5.22;3.78;;;31.40;99.90;;;;;;5241331;28;20195;-72
2023/08/16 07:59:26;;;;;;;6.07;3.85;;;31.50;99.90;;;;;;5223869;28;20336;-71
2023/08/16 08:02:05;;;;;;;3.90;3.08;;;31.60;99.90;;;;;;5211141;28;20540;-72
2023/08/16 08:04:41;;;;;;;4.88;4.07;;;31.80;99.90;;;;;;5203066;28;20053;-71
2023/08/16 08:07:14;;;;;;;8.45;4.05;;;31.70;99.90;;;;;;5222210;28;20540;-73
2023/08/16 08:09:45;;;;;;;3.80;3.47;;;31.90;86.40;;;;;;5207075;28;20032;-72
2023/08/16 08:12:19;;;;;;;5.07;4.10;;;31.70;1.00;;;;;;5223645;28;20040;-72
2023/08/16 08:14:53;;;;;;;;;;;31.90;8.20;;;;;;5224064;28;20036;-71
2023/08/16 08:17:28;;;;;;;4.63;3.92;;;32.10;99.90;;;;;;5202902;28;19912;-72
2023/08/16 08:20:01;;;;;;;7.88;3.78;;;32.10;1.00;;;;;;5222777;28;20043;-71
2023/08/16 08:22:33;;;;;;;;;;;31.90;1.00;;;;;;5242705;28;20044;-72
2023/08/16 08:25:14;;;;;;;3.90;3.50;;;31.90;1.00;;;;;;5221524;28;19975;-72
2023/08/16 08:27:46;;;;;;;4.10;3.70;;;31.80;1.00;;;;;;5217139;28;20050;-73
2023/08/16 08:30:18;;;;;;;4.25;3.83;;;32.00;1.00;;;;;;5237731;28;20233;-72
2023/08/16 08:32:50;;;;;;;4.85;3.65;;;31.80;1.00;;;;;;5239892;28;20040;-71
2023/08/16 08:35:22;;;;;;;4.43;4.03;;;32.20;1.00;;;;;;5207566;28;20594;-72
2023/08/16 08:37:53;;;;;;;5.95;3.53;;;32.40;1.00;;;;;;5202909;28;20024;-72
2023/08/16 08:40:25;;;;;;;5.93;3.80;;;32.30;1.00;;;;;;5232419;28;20620;-72
2023/08/16 08:43:01;;;;;;;5.07;4.05;;;32.30;1.00;;;;;;5223453;28;20254;-72
2023/08/16 08:45:35;;;;;;;5.85;4.10;;;32.50;1.00;;;;;;5205105;28;20052;-71
2023/08/16 08:48:06;;;;;;;5.10;3.70;;;32.60;1.00;;;;;;5207111;28;20233;-72
2023/08/16 08:50:39;;;;;;;4.45;3.67;;;32.70;1.00;;;;;;5174244;28;20037;-73
2023/08/16 08:53:13;;;;;;;6.18;3.95;;;32.90;1.00;;;;;;5188920;28;20041;-71
2023/08/16 08:55:46;;;;;;;;;;;32.80;1.00;;;;;;5237614;28;20242;-71
2023/08/16 08:58:20;;;;;;;4.80;3.60;;;32.70;1.00;;;;;;5224750;28;19936;-72
2023/08/16 09:00:57;;;;;;;4.95;4.10;;;33.00;1.00;;;;;;5186166;28;20055;-71
2023/08/16 09:03:37;;;;;;;5.70;3.88;;;33.00;1.00;;;;;;5216609;28;20045;-71
2023/08/16 09:06:15;;;;;;;3.97;3.53;;;33.40;1.00;;;;;;5206329;28;20044;-71
2023/08/16 09:08:47;;;;;;;4.25;3.60;;;33.50;1.00;;;;;;5179532;28;20044;-73
2023/08/16 09:11:22;;;;;;;3.80;3.45;;;33.90;1.00;;;;;;5239853;28;20053;-73
2023/08/16 09:14:01;;;;;;;6.00;4.57;;;34.10;1.00;;;;;;5197250;28;20033;-71
2023/08/16 09:16:33;;;;;;;4.30;3.90;;;34.10;99.90;;;;;;5188282;28;20049;-72
2023/08/16 09:19:13;;;;;;;4.00;3.30;;;34.10;99.90;;;;;;5202685;28;20037;-71
2023/08/16 09:21:51;;;;;;;4.70;3.25;;;34.00;1.00;;;;;;5221568;28;20040;-71
2023/08/16 09:24:32;;;;;;;4.35;3.78;;;34.40;1.00;;;;;;5241823;28;20038;-73
2023/08/16 09:27:07;;;;;;;4.90;4.03;;;33.90;1.00;;;;;;5226639;28;20357;-71
2023/08/16 09:29:44;;;;;;;8.57;4.32;;;33.60;1.00;;;;;;5211585;28;20041;-71
2023/08/16 09:32:19;;;;;;;4.00;3.60;;;33.50;1.00;;;;;;5229376;28;20040;-71
2023/08/16 09:34:53;;;;;;;4.05;3.72;;;33.80;1.00;;;;;;5206105;28;20379;-71
2023/08/16 09:37:32;;;;;;;4.15;3.70;;;34.10;1.00;;;;;;5190862;28;20048;-71
2023/08/16 09:40:06;;;;;;;4.10;3.80;;;34.60;1.00;;;;;;5194527;28;20329;-72
2023/08/16 09:42:41;;;;;;;5.03;3.60;;;34.70;1.00;;;;;;5211359;28;20036;-72
2023/08/16 09:45:12;;;;;;;4.47;4.07;;;34.90;1.00;;;;;;5220338;28;20306;-71
2023/08/16 09:47:44;;;;;;;3.97;3.47;;;34.60;99.90;;;;;;5192148;28;20037;-71
2023/08/16 09:50:21;;;;;;;4.47;3.42;;;34.90;99.90;;;;;;5204658;28;20360;-72
2023/08/16 09:52:53;;;;;;;6.57;3.88;;;34.90;99.90;;;;;;5224511;28;20040;-72
2023/08/16 09:55:29;;;;;;;4.45;3.47;;;35.10;99.90;;;;;;5189929;28;20371;-74
2023/08/16 09:58:04;;;;;;;4.00;3.40;;;35.20;99.90;;;;;;5213590;28;20318;-72
2023/08/16 10:00:40;;;;;;;3.55;3.10;;;34.70;1.00;;;;;;5238861;28;20348;-72
2023/08/16 10:03:17;;;;;;;4.25;3.40;;;34.80;99.90;;;;;;5212329;28;20045;-73
2023/08/16 10:05:52;;;;;;;4.05;3.65;;;34.70;99.90;;;;;;5217127;28;20447;-72
2023/08/16 10:08:27;;;;;;;4.20;3.78;;;34.70;99.90;;;;;;5210089;28;20041;-71
2023/08/16 10:11:00;;;;;;;5.53;3.90;;;35.20;1.00;;;;;;5198339;28;20234;-72
2023/08/16 10:13:38;;;;;;;5.40;3.78;;;34.70;99.90;;;;;;5185406;28;20049;-71
2023/08/16 10:16:14;;;;;;;4.30;3.80;;;34.20;99.90;;;;;;5200231;28;20053;-72
2023/08/16 10:18:52;;;;;;;4.13;3.72;;;34.40;99.90;;;;;;5210000;28;20074;-71
2023/08/16 10:21:25;;;;;;;5.97;3.90;;;35.30;1.00;;;;;;5227862;28;20031;-71
2023/08/16 10:24:00;;;;;;;3.35;3.05;;;35.60;99.90;;;;;;5220530;28;20032;-72
2023/08/16 10:26:34;;;;;;;4.20;3.80;;;35.80;99.90;;;;;;5229290;28;20040;-71
2023/08/16 10:29:11;;;;;;;4.85;3.60;;;35.70;99.90;;;;;;5226176;28;20046;-72
2023/08/16 10:31:46;;;;;;;4.45;3.50;;;35.30;99.90;;;;;;5205002;28;20320;-71
2023/08/16 10:34:21;;;;;;;3.97;3.58;;;35.60;99.90;;;;;;5227075;28;20039;-74
2023/08/16 10:37:01;;;;;;;3.80;3.45;;;36.80;99.90;;;;;;5227256;28;20032;-72
2023/08/16 10:39:35;;;;;;;5.00;3.47;;;37.80;99.90;;;;;;5194506;28;20230;-72
2023/08/16 10:42:07;;;;;;;3.45;2.95;;;38.80;99.90;;;;;;5207226;28;20049;-71
2023/08/16 10:44:51;;;;;;;3.42;2.92;;;39.10;1.00;;;;;;5203401;28;20036;-72
2023/08/16 10:47:32;;;;;;;3.80;3.40;;;39.10;1.00;;;;;;5204076;28;20311;-71
2023/08/16 10:50:07;;;;;;;5.32;3.53;;;39.80;1.00;;;;;;5221471;28;20044;-72
2023/08/16 10:52:41;;;;;;;4.28;3.88;;;40.20;1.00;;;;;;5205322;28;20298;-73
2023/08/16 10:55:23;;;;;;;3.42;2.90;;;41.00;99.90;;;;;;5209029;28;20044;-71
2023/08/16 10:57:56;;;;;;;3.42;3.13;;;41.50;1.00;;;;;;5204379;28;20036;-72
2023/08/16 11:00:35;;;;;;;3.72;3.25;;;41.10;99.90;;;;;;5218398;28;20321;-71
2023/08/16 11:03:24;;;;;;;4.53;3.75;;;41.40;1.00;;;;;;5220221;28;20051;-71
2023/08/16 11:06:02;;;;;;;3.60;3.30;;;41.60;1.00;;;;;;5242338;28;20390;-72
2023/08/16 11:08:41;;;;;;;4.15;3.72;;;42.20;99.90;;;;;;5227749;28;20020;-71
2023/08/16 11:11:14;;;;;;;5.38;3.50;;;42.30;99.90;;;;;;5194109;28;20375;-71
2023/08/16 11:13:46;;;;;;;4.10;3.40;;;40.90;1.00;;;;;;5200885;28;20138;-71
2023/08/16 11:16:18;;;;;;;4.25;3.78;;;40.70;1.00;;;;;;5203680;28;20055;-73
2023/08/16 11:18:50;;;;;;;3.80;3.40;;;41.00;1.00;;;;;;5207911;28;20201;-72
2023/08/16 11:21:22;;;;;;;3.72;3.42;;;41.10;1.00;;;;;;5205806;28;20075;-73
2023/08/16 11:24:02;;;;;;;4.65;3.45;;;41.10;99.90;;;;;;5189343;28;20049;-72
2023/08/16 11:26:39;;;;;;;4.30;3.75;;;41.80;53.70;;;;;;5207518;28;20285;-72
2023/08/16 11:29:11;;;;;;;3.80;3.50;;;42.70;99.90;;;;;;5225905;28;20036;-72
2023/08/16 11:31:43;;;;;;;3.75;3.30;;;42.90;99.90;;;;;;5217737;28;20352;-71
2023/08/16 11:34:14;;;;;;;3.40;3.10;;;42.70;99.90;;;;;;5172657;28;20033;-72
2023/08/16 11:36:57;;;;;;;3.20;2.90;;;41.90;1.00;;;;;;5222255;28;20046;-73
2023/08/16 11:39:30;;;;;;;4.15;3.75;;;43.00;1.00;;;;;;5227981;28;20036;-71
2023/08/16 11:42:04;;;;;;;4.45;3.55;;;43.20;1.00;;;;;;5195087;28;20055;-71
2023/08/16 11:44:45;;;;;;;3.60;3.30;;;43.20;1.00;;;;;;5212668;28;20036;-72
2023/08/16 11:47:17;;;;;;;4.30;3.38;;;42.80;1.00;;;;;;5222442;28;20036;-71
2023/08/16 11:49:49;;;;;;;3.45;3.15;;;43.10;91.90;;;;;;5225600;28;20040;-72
2023/08/16 11:52:31;;;;;;;4.67;3.17;;;43.20;1.00;;;;;;5219531;28;20017;-71
2023/08/16 11:55:10;;;;;;;4.93;3.30;;;43.30;1.00;;;;;;5191221;28;20052;-74
2023/08/16 11:57:48;;;;;;;4.15;3.85;;;43.60;1.00;;;;;;5225142;28;20082;-71
2023/08/16 12:00:29;;;;;;;5.50;3.63;;;43.70;1.00;;;;;;5221914;28;20045;-72
2023/08/16 12:03:11;;;;;;;3.78;3.38;;;43.20;1.00;;;;;;5218930;28;20044;-71
2023/08/16 12:05:44;;;;;;;4.53;3.90;;;43.30;99.90;;;;;;5182421;28;20062;-71
2023/08/16 12:08:22;;;;;;;3.53;3.30;;;42.90;1.00;;;;;;5215249;28;20036;-72
2023/08/16 12:10:58;;;;;;;3.78;3.47;;;42.60;15.60;;;;;;5208532;28;20045;-73
2023/08/16 12:13:39;;;;;;;3.30;2.95;;;42.80;1.00;;;;;;5225814;28;20339;-72
2023/08/16 12:16:15;;;;;;;9.75;4.57;;;43.40;1.00;;;;;;5204709;28;20325;-73
2023/08/16 12:18:50;;;;;;;3.88;3.58;;;44.30;62.80;;;;;;5223996;28;20044;-71
2023/08/16 12:21:23;;;;;;;4.55;4.15;;;44.30;1.00;;;;;;5201400;28;20052;-74
2023/08/16 12:24:10;;;;;;;3.42;3.13;;;45.00;99.90;;;;;;5188763;28;20353;-71
2023/08/16 12:26:41;;;;;;;3.67;3.38;;;45.50;99.90;;;;;;5209034;28;20035;-72
2023/08/16 12:29:13;;;;;;;3.78;3.33;;;46.60;99.90;;;;;;5202273;28;20182;-73
2023/08/16 12:31:48;;;;;;;4.47;3.17;;;45.10;99.90;;;;;;5201711;28;20035;-73
2023/08/16 12:34:20;;;;;;;3.28;3.08;;;45.70;99.90;;;;;;5221652;28;20120;-73
2023/08/16 12:36:54;;;;;;;4.75;3.13;;;46.00;99.90;;;;;;5191784;28;20059;-73
2023/08/16 12:39:30;;;;;;;3.95;3.30;;;45.80;99.90;;;;;;5208387;28;20044;-72
2023/08/16 12:42:05;;;;;;;4.20;3.83;;;45.90;99.90;;;;;;5207884;28;20220;-72
2023/08/16 12:44:42;;;;;;;4.13;3.30;;;46.50;99.90;;;;;;5204707;28;20045;-73
2023/08/16 12:47:16;;;;;;;3.83;3.53;;;45.50;99.90;;;;;;5218188;28;20045;-75
2023/08/16 12:49:48;;;;;;;3.33;3.03;;;45.30;99.90;;;;;;5187984;28;20045;-71
2023/08/16 12:52:25;;;;;;;4.10;3.55;;;44.90;99.90;;;;;;5209388;28;20040;-73
2023/08/16 12:54:59;;;;;;;3.55;3.25;;;44.40;1.00;;;;;;5225804;28;20029;-73
2023/08/16 12:57:33;;;;;;;4.18;3.78;;;43.90;98.60;;;;;;5213336;28;20117;-73
2023/08/16 13:00:11;;;;;;;3.92;3.50;;;44.60;99.90;;;;;;5207781;28;20032;-71
2023/08/16 13:02:42;;;;;;;3.30;3.00;;;44.60;99.90;;;;;;5214390;28;20045;-70
2023/08/16 13:05:14;;;;;;;3.83;3.38;;;45.10;99.90;;;;;;5202145;28;20368;-73
2023/08/16 13:07:50;;;;;;;3.38;3.10;;;45.10;99.90;;;;;;5231756;28;20044;-73
2023/08/16 13:10:22;;;;;;;5.40;3.70;;;45.50;99.90;;;;;;5225119;28;20062;-71
2023/08/16 13:12:54;;;;;;;3.63;3.05;;;45.30;99.90;;;;;;5239842;28;20027;-72
2023/08/16 13:15:25;;;;;;;4.63;3.20;;;44.70;99.90;;;;;;5206304;28;20221;-74
2023/08/16 13:17:57;;;;;;;6.82;3.78;;;42.30;99.90;;;;;;5211823;28;20051;-73
2023/08/16 13:20:31;;;;;;;4.43;2.92;;;41.60;16.00;;;;;;5191552;28;20055;-73
2023/08/16 13:23:05;;;;;;;6.95;3.03;;;42.50;99.90;;;;;;5218795;28;20620;-72
2023/08/16 13:25:40;;;;;;;3.95;3.17;;;43.70;99.90;;;;;;5240089;28;20071;-71
2023/08/16 13:28:14;;;;;;;2.88;2.67;;;43.40;99.90;;;;;;5206841;28;20041;-72
2023/08/16 13:30:47;;;;;;;3.75;3.10;;;43.90;99.90;;;;;;5188131;28;20033;-72
2023/08/16 13:33:19;;;;;;;7.65;3.08;;;44.40;99.90;;;;;;5221508;28;20249;-73
2023/08/16 13:35:51;;;;;;;3.20;2.90;;;43.30;99.90;;;;;;5188546;28;20305;-72
2023/08/16 13:38:22;;;;;;;4.50;3.53;;;41.10;61.60;;;;;;5202777;28;20330;-71